sensor_id;sensor_type;location;lat;lon;timestamp;temperature;humidity
65072;DHT22;51663;52.310;17.016;2023-03-01T00:00:10;25.10;17.30
65072;DHT22;51663;52.310;17.016;2023-03-01T00:03:34;25.10;17.70
65072;DHT22;51663;52.310;17.016;2023-03-01T00:06:36;25.10;17.20
65072;DHT22;51663;52.310;17.016;2023-03-01T00:09:39;25.10;17.40
65072;DHT22;51663;52.310;17.016;2023-03-01T00:31:35;24.90;17.90
65072;DHT22;51663;52.310;17.016;2023-03-01T00:34:38;25.00;17.50
65072;DHT22;51663;52.310;17.016;2023-03-01T00:37:40;24.90;17.40
65072;DHT22;51663;52.310;17.016;2023-03-01T00:40:43;24.90;17.10
65072;DHT22;51663;52.310;17.016;2023-03-01T00:43:45;24.90;17.40
65072;DHT22;51663;52.310;17.016;2023-03-01T00:46:48;24.90;17.70
65072;DHT22;51663;52.310;17.016;2023-03-01T00:49:50;24.90;17.40
65072;DHT22;51663;52.310;17.016;2023-03-01T00:52:54;24.90;17.50
65072;DHT22;51663;52.310;17.016;2023-03-01T00:55:57;24.90;17.50
65072;DHT22;51663;52.310;17.016;2023-03-01T00:59:00;25.00;17.00
65072;DHT22;51663;52.310;17.016;2023-03-01T01:02:02;24.90;17.30
65072;DHT22;51663;52.310;17.016;2023-03-01T01:05:05;24.90;16.80
65072;DHT22;51663;52.310;17.016;2023-03-01T01:08:07;24.90;17.10
65072;DHT22;51663;52.310;17.016;2023-03-01T01:11:11;24.90;17.30
65072;DHT22;51663;52.310;17.016;2023-03-01T01:14:14;24.90;17.30
65072;DHT22;51663;52.310;17.016;2023-03-01T01:17:16;24.90;17.30
65072;DHT22;51663;52.310;17.016;2023-03-01T01:20:18;24.90;16.60
65072;DHT22;51663;52.310;17.016;2023-03-01T01:23:20;24.90;17.20
65072;DHT22;51663;52.310;17.016;2023-03-01T01:26:25;24.80;17.00
65072;DHT22;51663;52.310;17.016;2023-03-01T01:29:28;24.90;16.60
65072;DHT22;51663;52.310;17.016;2023-03-01T01:32:30;24.80;16.80
65072;DHT22;51663;52.310;17.016;2023-03-01T01:35:32;24.80;16.70
65072;DHT22;51663;52.310;17.016;2023-03-01T01:38:36;24.80;17.10
65072;DHT22;51663;52.310;17.016;2023-03-01T01:41:41;24.80;16.70
65072;DHT22;51663;52.310;17.016;2023-03-01T01:44:47;24.80;17.00
65072;DHT22;51663;52.310;17.016;2023-03-01T01:47:51;24.80;17.40
65072;DHT22;51663;52.310;17.016;2023-03-01T01:50:59;24.70;17.30
65072;DHT22;51663;52.310;17.016;2023-03-01T01:54:02;24.80;16.60
65072;DHT22;51663;52.310;17.016;2023-03-01T01:57:09;24.80;17.30
65072;DHT22;51663;52.310;17.016;2023-03-01T02:00:19;24.80;16.90
65072;DHT22;51663;52.310;17.016;2023-03-01T02:03:29;24.80;16.70
65072;DHT22;51663;52.310;17.016;2023-03-01T02:07:06;24.70;16.60
65072;DHT22;51663;52.310;17.016;2023-03-01T02:10:09;24.70;16.70
65072;DHT22;51663;52.310;17.016;2023-03-01T02:13:12;24.70;16.90
65072;DHT22;51663;52.310;17.016;2023-03-01T02:16:16;24.70;17.30
65072;DHT22;51663;52.310;17.016;2023-03-01T02:23:21;24.60;17.30
65072;DHT22;51663;52.310;17.016;2023-03-01T02:26:25;24.70;16.70
65072;DHT22;51663;52.310;17.016;2023-03-01T02:29:29;24.70;17.00
65072;DHT22;51663;52.310;17.016;2023-03-01T02:32:31;24.70;16.90
65072;DHT22;51663;52.310;17.016;2023-03-01T02:35:37;24.60;16.70
65072;DHT22;51663;52.310;17.016;2023-03-01T02:38:41;24.60;17.20
65072;DHT22;51663;52.310;17.016;2023-03-01T02:41:50;24.60;16.90
65072;DHT22;51663;52.310;17.016;2023-03-01T02:44:53;24.60;17.00
65072;DHT22;51663;52.310;17.016;2023-03-01T02:47:57;24.60;17.40
65072;DHT22;51663;52.310;17.016;2023-03-01T02:54:27;24.60;17.40
65072;DHT22;51663;52.310;17.016;2023-03-01T02:57:32;24.50;17.10
65072;DHT22;51663;52.310;17.016;2023-03-01T03:00:40;24.60;17.20
65072;DHT22;51663;52.310;17.016;2023-03-01T03:03:48;24.60;16.70
65072;DHT22;51663;52.310;17.016;2023-03-01T03:06:51;24.60;16.80
65072;DHT22;51663;52.310;17.016;2023-03-01T03:09:53;24.60;16.90
65072;DHT22;51663;52.310;17.016;2023-03-01T03:12:57;24.60;16.80
65072;DHT22;51663;52.310;17.016;2023-03-01T03:16:02;24.60;16.90
65072;DHT22;51663;52.310;17.016;2023-03-01T03:19:05;24.60;16.90
65072;DHT22;51663;52.310;17.016;2023-03-01T03:22:07;24.60;17.00
65072;DHT22;51663;52.310;17.016;2023-03-01T03:25:11;24.60;16.20
65072;DHT22;51663;52.310;17.016;2023-03-01T03:28:13;24.60;16.60
65072;DHT22;51663;52.310;17.016;2023-03-01T03:31:17;24.60;16.40
65072;DHT22;51663;52.310;17.016;2023-03-01T03:34:20;24.60;16.40
65072;DHT22;51663;52.310;17.016;2023-03-01T03:37:22;24.70;16.80
65072;DHT22;51663;52.310;17.016;2023-03-01T03:40:44;24.60;16.10
65072;DHT22;51663;52.310;17.016;2023-03-01T03:43:46;24.50;17.30
65072;DHT22;51663;52.310;17.016;2023-03-01T03:46:48;24.50;17.00
65072;DHT22;51663;52.310;17.016;2023-03-01T03:49:50;24.60;16.40
65072;DHT22;51663;52.310;17.016;2023-03-01T03:52:52;24.50;17.10
65072;DHT22;51663;52.310;17.016;2023-03-01T03:55:55;24.60;17.10
65072;DHT22;51663;52.310;17.016;2023-03-01T03:58:57;24.60;16.80
65072;DHT22;51663;52.310;17.016;2023-03-01T04:01:59;24.60;17.00
65072;DHT22;51663;52.310;17.016;2023-03-01T04:05:02;24.60;16.00
65072;DHT22;51663;52.310;17.016;2023-03-01T04:08:05;24.60;16.10
65072;DHT22;51663;52.310;17.016;2023-03-01T04:11:09;24.60;16.80
65072;DHT22;51663;52.310;17.016;2023-03-01T04:14:29;24.60;17.00
65072;DHT22;51663;52.310;17.016;2023-03-01T04:17:33;24.60;17.10
65072;DHT22;51663;52.310;17.016;2023-03-01T04:20:36;24.50;16.80
65072;DHT22;51663;52.310;17.016;2023-03-01T04:23:38;24.60;16.70
65072;DHT22;51663;52.310;17.016;2023-03-01T04:26:41;24.60;16.80
65072;DHT22;51663;52.310;17.016;2023-03-01T04:29:43;24.50;16.60
65072;DHT22;51663;52.310;17.016;2023-03-01T04:32:45;24.50;16.90
65072;DHT22;51663;52.310;17.016;2023-03-01T04:35:47;24.50;17.10
65072;DHT22;51663;52.310;17.016;2023-03-01T04:38:53;24.40;16.50
65072;DHT22;51663;52.310;17.016;2023-03-01T04:41:55;24.50;16.40
65072;DHT22;51663;52.310;17.016;2023-03-01T04:44:57;24.50;16.50
65072;DHT22;51663;52.310;17.016;2023-03-01T04:47:59;24.60;16.60
65072;DHT22;51663;52.310;17.016;2023-03-01T04:51:03;24.60;17.10
65072;DHT22;51663;52.310;17.016;2023-03-01T04:54:05;24.60;17.00
65072;DHT22;51663;52.310;17.016;2023-03-01T04:57:10;24.60;16.70
65072;DHT22;51663;52.310;17.016;2023-03-01T05:00:13;24.60;16.60
65072;DHT22;51663;52.310;17.016;2023-03-01T05:03:22;24.60;16.40
65072;DHT22;51663;52.310;17.016;2023-03-01T05:06:24;24.60;16.40
65072;DHT22;51663;52.310;17.016;2023-03-01T05:09:26;24.60;16.60
65072;DHT22;51663;52.310;17.016;2023-03-01T05:12:28;24.60;16.60
65072;DHT22;51663;52.310;17.016;2023-03-01T05:15:31;24.60;16.40
65072;DHT22;51663;52.310;17.016;2023-03-01T05:18:34;24.60;16.50
65072;DHT22;51663;52.310;17.016;2023-03-01T05:21:38;24.40;16.90
65072;DHT22;51663;52.310;17.016;2023-03-01T05:25:03;24.40;16.90
65072;DHT22;51663;52.310;17.016;2023-03-01T05:28:09;24.50;16.30
65072;DHT22;51663;52.310;17.016;2023-03-01T05:31:12;24.60;16.30
65072;DHT22;51663;52.310;17.016;2023-03-01T05:34:15;24.60;17.00
65072;DHT22;51663;52.310;17.016;2023-03-01T05:37:17;24.60;17.20
65072;DHT22;51663;52.310;17.016;2023-03-01T05:40:21;24.60;16.20
65072;DHT22;51663;52.310;17.016;2023-03-01T05:43:29;24.60;17.20
65072;DHT22;51663;52.310;17.016;2023-03-01T05:46:33;24.70;17.30
65072;DHT22;51663;52.310;17.016;2023-03-01T05:49:35;24.70;17.10
65072;DHT22;51663;52.310;17.016;2023-03-01T05:52:40;24.80;16.60
65072;DHT22;51663;52.310;17.016;2023-03-01T05:55:43;24.80;16.40
65072;DHT22;51663;52.310;17.016;2023-03-01T05:58:48;24.70;16.50
65072;DHT22;51663;52.310;17.016;2023-03-01T06:01:51;24.70;16.60
65072;DHT22;51663;52.310;17.016;2023-03-01T06:04:54;24.80;17.10
65072;DHT22;51663;52.310;17.016;2023-03-01T06:08:03;24.70;17.00
65072;DHT22;51663;52.310;17.016;2023-03-01T06:11:06;24.80;17.00
65072;DHT22;51663;52.310;17.016;2023-03-01T06:14:09;24.90;16.90
65072;DHT22;51663;52.310;17.016;2023-03-01T06:17:12;25.00;17.00
65072;DHT22;51663;52.310;17.016;2023-03-01T06:20:18;25.00;16.90
65072;DHT22;51663;52.310;17.016;2023-03-01T06:23:21;25.10;17.10
65072;DHT22;51663;52.310;17.016;2023-03-01T06:26:23;25.10;17.20
65072;DHT22;51663;52.310;17.016;2023-03-01T06:29:26;25.20;17.30
65072;DHT22;51663;52.310;17.016;2023-03-01T06:32:29;25.30;17.30
65072;DHT22;51663;52.310;17.016;2023-03-01T06:35:33;25.30;17.30
65072;DHT22;51663;52.310;17.016;2023-03-01T06:38:38;25.50;17.60
65072;DHT22;51663;52.310;17.016;2023-03-01T06:41:42;25.50;17.70
65072;DHT22;51663;52.310;17.016;2023-03-01T06:44:44;25.70;17.80
65072;DHT22;51663;52.310;17.016;2023-03-01T06:47:50;25.80;17.80
65072;DHT22;51663;52.310;17.016;2023-03-01T06:50:53;25.90;17.90
65072;DHT22;51663;52.310;17.016;2023-03-01T06:53:56;26.10;18.00
65072;DHT22;51663;52.310;17.016;2023-03-01T06:57:00;26.20;18.00
65072;DHT22;51663;52.310;17.016;2023-03-01T07:00:05;26.20;18.20
65072;DHT22;51663;52.310;17.016;2023-03-01T07:03:10;26.30;18.30
65072;DHT22;51663;52.310;17.016;2023-03-01T07:06:13;26.20;18.40
65072;DHT22;51663;52.310;17.016;2023-03-01T07:09:15;26.40;18.70
65072;DHT22;51663;52.310;17.016;2023-03-01T07:12:21;26.60;18.60
65072;DHT22;51663;52.310;17.016;2023-03-01T07:15:27;26.80;18.70
65072;DHT22;51663;52.310;17.016;2023-03-01T07:18:29;26.90;18.60
65072;DHT22;51663;52.310;17.016;2023-03-01T07:21:32;27.00;18.50
65072;DHT22;51663;52.310;17.016;2023-03-01T07:24:34;27.20;18.60
65072;DHT22;51663;52.310;17.016;2023-03-01T07:27:36;27.20;18.60
65072;DHT22;51663;52.310;17.016;2023-03-01T07:30:39;27.10;18.80
65072;DHT22;51663;52.310;17.016;2023-03-01T07:33:42;27.20;19.10
65072;DHT22;51663;52.310;17.016;2023-03-01T07:36:47;26.80;19.00
65072;DHT22;51663;52.310;17.016;2023-03-01T07:39:49;27.10;18.80
65072;DHT22;51663;52.310;17.016;2023-03-01T07:42:55;27.20;18.60
65072;DHT22;51663;52.310;17.016;2023-03-01T07:46:02;27.40;18.90
65072;DHT22;51663;52.310;17.016;2023-03-01T07:49:05;27.50;18.80
65072;DHT22;51663;52.310;17.016;2023-03-01T07:52:10;27.60;18.80
65072;DHT22;51663;52.310;17.016;2023-03-01T07:55:16;27.60;18.80
65072;DHT22;51663;52.310;17.016;2023-03-01T07:58:18;27.50;19.10
65072;DHT22;51663;52.310;17.016;2023-03-01T08:01:21;27.60;18.80
65072;DHT22;51663;52.310;17.016;2023-03-01T08:04:23;27.80;19.00
65072;DHT22;51663;52.310;17.016;2023-03-01T08:07:28;27.90;18.80
65072;DHT22;51663;52.310;17.016;2023-03-01T08:10:30;28.00;18.90
65072;DHT22;51663;52.310;17.016;2023-03-01T08:13:33;28.10;19.00
65072;DHT22;51663;52.310;17.016;2023-03-01T08:16:36;28.20;19.10
65072;DHT22;51663;52.310;17.016;2023-03-01T08:19:39;28.20;19.30
65072;DHT22;51663;52.310;17.016;2023-03-01T08:22:41;28.30;19.80
65072;DHT22;51663;52.310;17.016;2023-03-01T08:25:45;28.30;18.70
65072;DHT22;51663;52.310;17.016;2023-03-01T08:28:50;28.30;18.80
65072;DHT22;51663;52.310;17.016;2023-03-01T08:31:53;28.30;19.00
65072;DHT22;51663;52.310;17.016;2023-03-01T08:34:55;28.40;19.20
65072;DHT22;51663;52.310;17.016;2023-03-01T08:37:57;28.70;19.10
65072;DHT22;51663;52.310;17.016;2023-03-01T08:41:01;28.80;18.70
65072;DHT22;51663;52.310;17.016;2023-03-01T08:44:04;28.80;18.70
65072;DHT22;51663;52.310;17.016;2023-03-01T08:47:06;28.90;18.50
65072;DHT22;51663;52.310;17.016;2023-03-01T08:50:09;29.10;18.10
65072;DHT22;51663;52.310;17.016;2023-03-01T08:53:14;29.00;18.30
65072;DHT22;51663;52.310;17.016;2023-03-01T08:56:17;29.00;18.40
65072;DHT22;51663;52.310;17.016;2023-03-01T08:59:22;29.20;18.40
65072;DHT22;51663;52.310;17.016;2023-03-01T09:02:24;29.30;18.40
65072;DHT22;51663;52.310;17.016;2023-03-01T09:05:26;29.10;18.40
65072;DHT22;51663;52.310;17.016;2023-03-01T09:08:29;29.20;18.40
65072;DHT22;51663;52.310;17.016;2023-03-01T09:11:31;29.20;17.90
65072;DHT22;51663;52.310;17.016;2023-03-01T09:14:35;29.20;18.00
65072;DHT22;51663;52.310;17.016;2023-03-01T09:17:38;29.30;17.80
65072;DHT22;51663;52.310;17.016;2023-03-01T09:20:41;29.30;17.80
65072;DHT22;51663;52.310;17.016;2023-03-01T09:23:45;29.40;18.10
65072;DHT22;51663;52.310;17.016;2023-03-01T09:26:53;29.40;17.60
65072;DHT22;51663;52.310;17.016;2023-03-01T09:29:56;29.40;17.90
65072;DHT22;51663;52.310;17.016;2023-03-01T09:33:00;29.50;17.50
65072;DHT22;51663;52.310;17.016;2023-03-01T09:36:06;29.50;17.80
65072;DHT22;51663;52.310;17.016;2023-03-01T09:39:09;29.50;17.90
65072;DHT22;51663;52.310;17.016;2023-03-01T09:42:13;29.60;17.40
65072;DHT22;51663;52.310;17.016;2023-03-01T09:45:33;29.70;17.00
65072;DHT22;51663;52.310;17.016;2023-03-01T09:48:50;29.80;17.20
65072;DHT22;51663;52.310;17.016;2023-03-01T09:52:15;29.70;17.20
65072;DHT22;51663;52.310;17.016;2023-03-01T09:55:28;29.70;17.20
65072;DHT22;51663;52.310;17.016;2023-03-01T09:58:45;29.70;17.00
65072;DHT22;51663;52.310;17.016;2023-03-01T10:05:41;29.80;17.10
65072;DHT22;51663;52.310;17.016;2023-03-01T10:12:21;30.00;16.80
65072;DHT22;51663;52.310;17.016;2023-03-01T10:15:39;30.00;16.90
65072;DHT22;51663;52.310;17.016;2023-03-01T10:18:47;30.00;16.90
65072;DHT22;51663;52.310;17.016;2023-03-01T10:21:53;29.90;16.90
65072;DHT22;51663;52.310;17.016;2023-03-01T10:24:59;30.00;17.00
65072;DHT22;51663;52.310;17.016;2023-03-01T10:28:17;30.00;17.00
65072;DHT22;51663;52.310;17.016;2023-03-01T10:31:24;30.10;17.10
65072;DHT22;51663;52.310;17.016;2023-03-01T10:34:35;29.90;17.10
65072;DHT22;51663;52.310;17.016;2023-03-01T10:41:07;29.30;17.70
65072;DHT22;51663;52.310;17.016;2023-03-01T10:44:51;29.30;17.70
65072;DHT22;51663;52.310;17.016;2023-03-01T10:51:07;29.20;17.40
65072;DHT22;51663;52.310;17.016;2023-03-01T10:54:35;29.50;17.60
65072;DHT22;51663;52.310;17.016;2023-03-01T10:57:39;29.30;17.50
65072;DHT22;51663;52.310;17.016;2023-03-01T11:01:29;28.70;18.20
65072;DHT22;51663;52.310;17.016;2023-03-01T11:04:38;29.00;18.30
65072;DHT22;51663;52.310;17.016;2023-03-01T11:08:01;29.40;17.90
65072;DHT22;51663;52.310;17.016;2023-03-01T11:14:37;29.20;17.90
65072;DHT22;51663;52.310;17.016;2023-03-01T11:17:43;29.60;18.00
65072;DHT22;51663;52.310;17.016;2023-03-01T11:20:57;29.60;17.90
65072;DHT22;51663;52.310;17.016;2023-03-01T11:24:05;29.90;17.70
65072;DHT22;51663;52.310;17.016;2023-03-01T11:27:25;30.10;17.50
65072;DHT22;51663;52.310;17.016;2023-03-01T11:30:29;30.30;17.40
65072;DHT22;51663;52.310;17.016;2023-03-01T11:33:47;30.50;17.10
65072;DHT22;51663;52.310;17.016;2023-03-01T11:36:58;30.30;17.20
65072;DHT22;51663;52.310;17.016;2023-03-01T11:40:12;30.40;17.30
65072;DHT22;51663;52.310;17.016;2023-03-01T11:46:53;30.60;17.00
65072;DHT22;51663;52.310;17.016;2023-03-01T11:50:19;30.70;16.90
65072;DHT22;51663;52.310;17.016;2023-03-01T11:56:45;30.60;17.00
65072;DHT22;51663;52.310;17.016;2023-03-01T11:59:58;30.70;17.10
65072;DHT22;51663;52.310;17.016;2023-03-01T12:06:31;30.50;17.40
65072;DHT22;51663;52.310;17.016;2023-03-01T12:10:06;30.50;17.50
65072;DHT22;51663;52.310;17.016;2023-03-01T12:16:56;30.60;17.30
65072;DHT22;51663;52.310;17.016;2023-03-01T12:20:28;30.80;17.30
65072;DHT22;51663;52.310;17.016;2023-03-01T12:27:00;30.70;17.40
65072;DHT22;51663;52.310;17.016;2023-03-01T12:30:45;30.50;17.50
65072;DHT22;51663;52.310;17.016;2023-03-01T12:34:00;30.50;17.40
65072;DHT22;51663;52.310;17.016;2023-03-01T12:50:39;30.60;17.70
65072;DHT22;51663;52.310;17.016;2023-03-01T12:53:47;30.60;17.90
65072;DHT22;51663;52.310;17.016;2023-03-01T12:56:50;30.70;17.70
65072;DHT22;51663;52.310;17.016;2023-03-01T13:00:20;30.80;17.70
65072;DHT22;51663;52.310;17.016;2023-03-01T13:07:07;30.90;17.80
65072;DHT22;51663;52.310;17.016;2023-03-01T13:10:26;30.60;17.90
65072;DHT22;51663;52.310;17.016;2023-03-01T13:13:31;29.80;18.20
65072;DHT22;51663;52.310;17.016;2023-03-01T13:16:40;29.80;18.60
65072;DHT22;51663;52.310;17.016;2023-03-01T13:19:56;30.00;18.50
65072;DHT22;51663;52.310;17.016;2023-03-01T13:26:25;30.40;18.20
65072;DHT22;51663;52.310;17.016;2023-03-01T13:29:27;30.20;18.40
65072;DHT22;51663;52.310;17.016;2023-03-01T13:32:30;29.90;18.50
65072;DHT22;51663;52.310;17.016;2023-03-01T13:35:50;30.10;18.70
65072;DHT22;51663;52.310;17.016;2023-03-01T13:38:57;30.30;18.50
65072;DHT22;51663;52.310;17.016;2023-03-01T13:42:00;30.50;18.50
65072;DHT22;51663;52.310;17.016;2023-03-01T13:45:03;30.60;18.30
65072;DHT22;51663;52.310;17.016;2023-03-01T13:48:36;30.60;19.00
65072;DHT22;51663;52.310;17.016;2023-03-01T13:51:39;30.40;18.30
65072;DHT22;51663;52.310;17.016;2023-03-01T13:54:42;30.70;18.60
65072;DHT22;51663;52.310;17.016;2023-03-01T13:57:48;30.80;18.60
65072;DHT22;51663;52.310;17.016;2023-03-01T14:01:06;30.50;18.50
65072;DHT22;51663;52.310;17.016;2023-03-01T14:07:26;30.80;18.70
65072;DHT22;51663;52.310;17.016;2023-03-01T14:10:48;30.90;18.60
65072;DHT22;51663;52.310;17.016;2023-03-01T14:17:58;31.00;18.50
65072;DHT22;51663;52.310;17.016;2023-03-01T14:21:07;31.10;18.50
65072;DHT22;51663;52.310;17.016;2023-03-01T14:24:21;31.10;18.50
65072;DHT22;51663;52.310;17.016;2023-03-01T14:27:39;30.90;18.60
65072;DHT22;51663;52.310;17.016;2023-03-01T14:30:51;31.10;18.90
65072;DHT22;51663;52.310;17.016;2023-03-01T14:33:55;31.10;18.80
65072;DHT22;51663;52.310;17.016;2023-03-01T14:37:19;31.10;18.80
65072;DHT22;51663;52.310;17.016;2023-03-01T14:40:28;30.90;18.80
65072;DHT22;51663;52.310;17.016;2023-03-01T14:43:31;31.20;18.70
65072;DHT22;51663;52.310;17.016;2023-03-01T14:46:37;30.90;18.80
65072;DHT22;51663;52.310;17.016;2023-03-01T14:49:42;31.00;18.80
65072;DHT22;51663;52.310;17.016;2023-03-01T14:52:47;31.00;18.70
65072;DHT22;51663;52.310;17.016;2023-03-01T14:55:56;31.00;18.70
65072;DHT22;51663;52.310;17.016;2023-03-01T14:58:59;31.10;19.40
65072;DHT22;51663;52.310;17.016;2023-03-01T15:02:01;31.10;18.80
65072;DHT22;51663;52.310;17.016;2023-03-01T15:05:04;31.10;18.80
65072;DHT22;51663;52.310;17.016;2023-03-01T15:08:22;31.10;18.90
65072;DHT22;51663;52.310;17.016;2023-03-01T15:11:31;31.00;19.10
65072;DHT22;51663;52.310;17.016;2023-03-01T15:14:42;31.10;19.10
65072;DHT22;51663;52.310;17.016;2023-03-01T15:17:55;31.10;19.00
65072;DHT22;51663;52.310;17.016;2023-03-01T15:21:10;31.10;19.00
65072;DHT22;51663;52.310;17.016;2023-03-01T15:24:20;31.00;18.80
65072;DHT22;51663;52.310;17.016;2023-03-01T15:27:25;30.60;19.00
65072;DHT22;51663;52.310;17.016;2023-03-01T15:30:32;30.50;19.00
65072;DHT22;51663;52.310;17.016;2023-03-01T15:33:40;30.60;18.80
65072;DHT22;51663;52.310;17.016;2023-03-01T15:36:51;30.50;18.90
65072;DHT22;51663;52.310;17.016;2023-03-01T15:39:55;30.60;18.90
65072;DHT22;51663;52.310;17.016;2023-03-01T15:43:05;30.80;19.00
65072;DHT22;51663;52.310;17.016;2023-03-01T15:46:36;30.90;19.00
65072;DHT22;51663;52.310;17.016;2023-03-01T15:49:41;30.90;19.10
65072;DHT22;51663;52.310;17.016;2023-03-01T15:52:57;30.90;19.00
65072;DHT22;51663;52.310;17.016;2023-03-01T15:56:00;30.90;19.00
65072;DHT22;51663;52.310;17.016;2023-03-01T15:59:02;30.90;19.20
65072;DHT22;51663;52.310;17.016;2023-03-01T16:02:11;30.80;19.20
65072;DHT22;51663;52.310;17.016;2023-03-01T16:05:29;30.80;19.30
65072;DHT22;51663;52.310;17.016;2023-03-01T16:08:34;30.80;19.30
65072;DHT22;51663;52.310;17.016;2023-03-01T16:11:36;30.60;19.30
65072;DHT22;51663;52.310;17.016;2023-03-01T16:14:40;30.70;19.40
65072;DHT22;51663;52.310;17.016;2023-03-01T16:17:42;30.60;19.40
65072;DHT22;51663;52.310;17.016;2023-03-01T16:20:44;30.60;19.70
65072;DHT22;51663;52.310;17.016;2023-03-01T16:23:46;30.50;19.40
65072;DHT22;51663;52.310;17.016;2023-03-01T16:26:48;30.50;19.70
65072;DHT22;51663;52.310;17.016;2023-03-01T16:29:51;30.40;19.50
65072;DHT22;51663;52.310;17.016;2023-03-01T16:32:53;30.30;19.50
65072;DHT22;51663;52.310;17.016;2023-03-01T16:35:56;30.20;19.50
65072;DHT22;51663;52.310;17.016;2023-03-01T16:38:59;30.10;19.60
65072;DHT22;51663;52.310;17.016;2023-03-01T16:42:02;30.00;19.50
65072;DHT22;51663;52.310;17.016;2023-03-01T16:45:05;29.90;19.60
65072;DHT22;51663;52.310;17.016;2023-03-01T16:48:24;29.80;19.90
65072;DHT22;51663;52.310;17.016;2023-03-01T16:51:27;29.70;19.60
65072;DHT22;51663;52.310;17.016;2023-03-01T16:54:31;29.60;19.80
65072;DHT22;51663;52.310;17.016;2023-03-01T16:57:37;29.50;19.60
65072;DHT22;51663;52.310;17.016;2023-03-01T17:00:40;29.40;19.80
65072;DHT22;51663;52.310;17.016;2023-03-01T17:03:44;29.30;19.90
65072;DHT22;51663;52.310;17.016;2023-03-01T17:06:48;29.20;20.00
65072;DHT22;51663;52.310;17.016;2023-03-01T17:09:50;29.10;20.00
65072;DHT22;51663;52.310;17.016;2023-03-01T17:12:52;29.00;20.10
65072;DHT22;51663;52.310;17.016;2023-03-01T17:15:55;29.00;20.10
65072;DHT22;51663;52.310;17.016;2023-03-01T17:18:57;28.90;20.00
65072;DHT22;51663;52.310;17.016;2023-03-01T17:22:03;28.90;20.20
65072;DHT22;51663;52.310;17.016;2023-03-01T17:25:08;28.80;20.10
65072;DHT22;51663;52.310;17.016;2023-03-01T17:28:15;28.80;20.10
65072;DHT22;51663;52.310;17.016;2023-03-01T17:31:22;28.80;20.20
65072;DHT22;51663;52.310;17.016;2023-03-01T17:34:25;28.70;20.00
65072;DHT22;51663;52.310;17.016;2023-03-01T17:37:27;28.60;20.10
65072;DHT22;51663;52.310;17.016;2023-03-01T17:40:32;28.60;20.20
65072;DHT22;51663;52.310;17.016;2023-03-01T17:43:37;28.60;20.10
65072;DHT22;51663;52.310;17.016;2023-03-01T17:46:40;28.50;20.30
65072;DHT22;51663;52.310;17.016;2023-03-01T17:49:45;28.50;20.40
65072;DHT22;51663;52.310;17.016;2023-03-01T17:52:49;28.40;20.30
65072;DHT22;51663;52.310;17.016;2023-03-01T17:56:00;28.40;20.30
65072;DHT22;51663;52.310;17.016;2023-03-01T17:59:06;28.40;20.20
65072;DHT22;51663;52.310;17.016;2023-03-01T18:02:11;28.40;20.20
65072;DHT22;51663;52.310;17.016;2023-03-01T18:05:16;28.40;20.20
65072;DHT22;51663;52.310;17.016;2023-03-01T18:08:19;28.30;20.20
65072;DHT22;51663;52.310;17.016;2023-03-01T18:11:23;28.30;20.30
65072;DHT22;51663;52.310;17.016;2023-03-01T18:14:27;28.30;20.10
65072;DHT22;51663;52.310;17.016;2023-03-01T18:17:34;28.20;20.40
65072;DHT22;51663;52.310;17.016;2023-03-01T18:20:36;28.20;19.90
65072;DHT22;51663;52.310;17.016;2023-03-01T18:23:39;28.10;20.20
65072;DHT22;51663;52.310;17.016;2023-03-01T18:26:42;28.10;19.90
65072;DHT22;51663;52.310;17.016;2023-03-01T18:29:45;28.10;20.10
65072;DHT22;51663;52.310;17.016;2023-03-01T18:32:50;28.00;19.90
65072;DHT22;51663;52.310;17.016;2023-03-01T18:35:57;28.00;19.80
65072;DHT22;51663;52.310;17.016;2023-03-01T18:39:02;27.90;20.10
65072;DHT22;51663;52.310;17.016;2023-03-01T18:42:13;27.90;20.10
65072;DHT22;51663;52.310;17.016;2023-03-01T18:45:17;27.90;19.70
65072;DHT22;51663;52.310;17.016;2023-03-01T18:48:20;27.80;19.80
65072;DHT22;51663;52.310;17.016;2023-03-01T18:51:27;27.80;19.80
65072;DHT22;51663;52.310;17.016;2023-03-01T18:54:32;27.80;19.80
65072;DHT22;51663;52.310;17.016;2023-03-01T18:57:36;27.80;19.70
65072;DHT22;51663;52.310;17.016;2023-03-01T19:00:38;27.70;19.70
65072;DHT22;51663;52.310;17.016;2023-03-01T19:03:43;27.70;19.80
65072;DHT22;51663;52.310;17.016;2023-03-01T19:06:45;27.60;20.10
65072;DHT22;51663;52.310;17.016;2023-03-01T19:09:48;27.50;20.50
65072;DHT22;51663;52.310;17.016;2023-03-01T19:12:53;27.50;19.60
65072;DHT22;51663;52.310;17.016;2023-03-01T19:16:05;27.50;20.10
65072;DHT22;51663;52.310;17.016;2023-03-01T19:19:09;27.50;19.70
65072;DHT22;51663;52.310;17.016;2023-03-01T19:22:12;27.50;19.80
65072;DHT22;51663;52.310;17.016;2023-03-01T19:25:20;27.50;20.00
65072;DHT22;51663;52.310;17.016;2023-03-01T19:28:23;27.40;19.90
65072;DHT22;51663;52.310;17.016;2023-03-01T19:31:27;27.40;19.80
65072;DHT22;51663;52.310;17.016;2023-03-01T19:34:31;27.40;19.70
65072;DHT22;51663;52.310;17.016;2023-03-01T19:37:38;27.30;19.90
65072;DHT22;51663;52.310;17.016;2023-03-01T19:40:42;27.20;19.90
65072;DHT22;51663;52.310;17.016;2023-03-01T19:43:47;27.20;19.80
65072;DHT22;51663;52.310;17.016;2023-03-01T19:46:56;27.10;19.80
65072;DHT22;51663;52.310;17.016;2023-03-01T19:49:59;27.00;20.20
65072;DHT22;51663;52.310;17.016;2023-03-01T19:53:01;27.00;19.90
65072;DHT22;51663;52.310;17.016;2023-03-01T19:56:05;27.00;20.00
65072;DHT22;51663;52.310;17.016;2023-03-01T19:59:23;27.00;20.30
65072;DHT22;51663;52.310;17.016;2023-03-01T20:02:26;27.00;20.20
65072;DHT22;51663;52.310;17.016;2023-03-01T20:05:34;27.00;20.20
65072;DHT22;51663;52.310;17.016;2023-03-01T20:08:37;27.10;19.70
65072;DHT22;51663;52.310;17.016;2023-03-01T20:11:39;27.10;19.80
65072;DHT22;51663;52.310;17.016;2023-03-01T20:14:43;27.10;19.80
65072;DHT22;51663;52.310;17.016;2023-03-01T20:17:46;27.10;19.60
65072;DHT22;51663;52.310;17.016;2023-03-01T20:20:49;27.20;19.70
65072;DHT22;51663;52.310;17.016;2023-03-01T20:23:52;27.20;19.80
65072;DHT22;51663;52.310;17.016;2023-03-01T20:26:54;27.20;19.80
65072;DHT22;51663;52.310;17.016;2023-03-01T20:29:56;27.20;19.60
65072;DHT22;51663;52.310;17.016;2023-03-01T20:32:59;27.10;19.80
65072;DHT22;51663;52.310;17.016;2023-03-01T20:36:08;27.10;19.90
65072;DHT22;51663;52.310;17.016;2023-03-01T20:39:10;27.20;19.80
65072;DHT22;51663;52.310;17.016;2023-03-01T20:42:18;27.20;20.00
65072;DHT22;51663;52.310;17.016;2023-03-01T20:45:54;27.20;19.80